Cornwallville, New York
Current Conditions -  °F | °C
As of 1:58 PM on Tuesday 27 Jan 2015 (Local Time) from KALB Reporting Station
Moderate Snow Moderate Snow  
Wind Chill:   Ceiling: 1000
Heat Index: 13°   Visibility: 0.5mi
Dew Point:   Wind: 10mph
Humidity: 77%   Direction: 30°NNE
Pressure: 29.81"   Gusts: NA
Location:  42.37°N, 74.16°W
Report Text: KALB 271858Z 03009KT 1/2SM R01/3500V5000FT SN VV010 M11/M14 A2981 RMK AO2 P0000 T11061139
Loading
Personal Weather Stations






























Interactive Weather Map New forecast layout! Learn more

10-Day Weather Forecast

Advertisements
Track Severe Weather on mobile